Time;durP1;ratioP1;P1;durP2;ratioP2;P2;SDS_P1;SDS_P2;PMS_P1;PMS_P2;Temp;Humidity;BMP_temperature;BMP_pressure;BME280_temperature;BME280_humidity;BME280_pressure;Samples;Min_cycle;Max_cycle;Signal;HPM_P1;HPM_P2
2023/07/13 00:00:16;;;;;;;5.30;3.20;;;23.20;77.20;;;;;;5050805;28;20048;-50
2023/07/13 00:03:04;;;;;;;5.40;3.20;;;23.00;77.90;;;;;;5052610;28;20524;-50
2023/07/13 00:05:58;;;;;;;10.57;3.70;;;22.80;79.00;;;;;;5049606;28;20033;-50
2023/07/13 00:08:44;;;;;;;5.20;2.88;;;22.60;78.00;;;;;;5056824;28;20029;-49
2023/07/13 00:11:30;;;;;;;4.38;3.03;;;22.40;78.10;;;;;;5053286;28;20074;-49
2023/07/13 00:14:16;;;;;;;5.97;3.25;;;22.30;78.20;;;;;;5049139;28;20040;-49
2023/07/13 00:17:02;;;;;;;5.68;3.00;;;22.00;78.00;;;;;;5033407;28;20196;-50
2023/07/13 00:19:48;;;;;;;7.93;3.10;;;21.90;78.40;;;;;;5060381;28;20040;-49
2023/07/13 00:22:34;;;;;;;7.90;3.15;;;21.70;78.70;;;;;;5033355;28;20057;-50
2023/07/13 00:25:24;;;;;;;7.93;3.33;;;21.70;78.70;;;;;;5033262;28;20040;-49
2023/07/13 00:28:10;;;;;;;5.35;3.40;;;21.50;79.10;;;;;;5032612;28;20104;-49
2023/07/13 00:30:56;;;;;;;6.13;3.33;;;21.20;79.90;;;;;;5060070;28;20351;-50
2023/07/13 00:33:42;;;;;;;5.15;3.40;;;21.00;80.60;;;;;;5033807;28;20025;-52
2023/07/13 00:36:29;;;;;;;7.38;4.30;;;21.00;80.70;;;;;;5044943;28;20041;-49
2023/07/13 00:39:15;;;;;;;6.20;3.10;;;21.00;80.90;;;;;;5052387;28;20025;-53
2023/07/13 00:42:02;;;;;;;7.15;3.22;;;20.90;81.30;;;;;;5051747;28;20047;-50
2023/07/13 00:45:07;;;;;;;6.53;3.25;;;20.80;81.60;;;;;;5051859;28;20422;-52
2023/07/13 00:47:54;;;;;;;7.95;3.67;;;20.80;81.90;;;;;;5051061;28;20044;-47
2023/07/13 00:50:41;;;;;;;5.40;3.33;;;20.70;82.30;;;;;;5052282;28;20029;-49
2023/07/13 00:53:30;;;;;;;5.35;3.25;;;20.40;83.40;;;;;;5044662;28;20033;-50
2023/07/13 00:56:17;;;;;;;6.47;3.67;;;20.50;84.10;;;;;;5032992;28;20523;-47
2023/07/13 00:59:05;;;;;;;8.57;3.80;;;20.30;84.00;;;;;;5032835;28;20075;-49
2023/07/13 01:01:51;;;;;;;5.25;3.65;;;20.20;84.70;;;;;;5036919;28;20037;-47
2023/07/13 01:04:38;;;;;;;7.57;3.25;;;20.10;85.30;;;;;;5031030;28;20021;-48
2023/07/13 01:07:25;;;;;;;9.45;3.90;;;20.20;85.00;;;;;;5030330;28;20037;-52
2023/07/13 01:10:12;;;;;;;4.75;3.60;;;20.10;85.20;;;;;;5030487;28;20497;-47
2023/07/13 01:12:59;;;;;;;5.03;3.40;;;20.30;85.00;;;;;;5059904;28;20017;-48
2023/07/13 01:15:47;;;;;;;7.35;3.85;;;20.20;85.60;;;;;;5033445;28;20139;-48
2023/07/13 01:18:33;;;;;;;5.90;3.70;;;20.20;85.80;;;;;;5032951;28;20030;-47
2023/07/13 01:21:19;;;;;;;5.72;3.58;;;20.20;85.40;;;;;;5040889;28;20034;-47
2023/07/13 01:24:05;;;;;;;5.18;3.60;;;20.30;85.20;;;;;;5011871;28;20038;-47
2023/07/13 01:26:51;;;;;;;5.90;3.70;;;20.40;84.90;;;;;;5033524;28;20547;-47
2023/07/13 01:29:41;;;;;;;6.05;3.78;;;20.40;85.50;;;;;;5051326;28;20493;-48
2023/07/13 01:32:27;;;;;;;7.28;3.50;;;20.40;85.40;;;;;;5040410;28;20030;-48
2023/07/13 01:35:13;;;;;;;4.93;3.45;;;20.40;85.40;;;;;;5029852;28;20497;-49
2023/07/13 01:38:01;;;;;;;6.07;3.72;;;20.50;85.50;;;;;;5032395;28;20454;-48
2023/07/13 01:40:47;;;;;;;4.55;3.85;;;20.60;85.20;;;;;;5030507;28;20037;-49
2023/07/13 01:43:33;;;;;;;7.43;3.70;;;20.60;85.30;;;;;;5031079;28;20398;-52
2023/07/13 01:46:19;;;;;;;4.82;3.38;;;20.60;85.20;;;;;;5031454;28;20540;-53
2023/07/13 01:49:05;;;;;;;4.22;3.28;;;20.70;85.10;;;;;;5033038;28;20022;-48
2023/07/13 01:51:51;;;;;;;5.43;3.35;;;20.70;84.80;;;;;;5032207;28;20037;-47
2023/07/13 01:54:37;;;;;;;5.78;3.80;;;20.70;85.60;;;;;;5031903;28;20040;-48
2023/07/13 01:57:23;;;;;;;7.13;4.00;;;20.70;85.10;;;;;;5031404;28;20036;-47
2023/07/13 02:00:10;;;;;;;9.02;3.85;;;20.60;85.40;;;;;;5032269;28;20036;-47
2023/07/13 02:02:57;;;;;;;5.60;3.75;;;20.60;85.80;;;;;;5031103;28;20037;-48
2023/07/13 02:05:43;;;;;;;5.97;3.42;;;20.60;85.70;;;;;;5058775;28;20541;-51
2023/07/13 02:08:30;;;;;;;5.63;3.67;;;20.60;85.80;;;;;;5047612;28;20025;-48
2023/07/13 02:11:17;;;;;;;6.78;3.90;;;20.50;86.00;;;;;;5052721;28;20032;-52
2023/07/13 02:14:03;;;;;;;5.82;4.40;;;20.40;86.20;;;;;;5050294;28;20493;-48
2023/07/13 02:16:49;;;;;;;8.25;3.92;;;20.50;86.20;;;;;;5051028;28;20040;-50
2023/07/13 02:19:36;;;;;;;5.57;3.70;;;20.40;86.70;;;;;;5052598;28;20033;-47
2023/07/13 02:22:22;;;;;;;6.22;3.90;;;20.50;86.20;;;;;;5054145;28;20025;-47
2023/07/13 02:25:08;;;;;;;6.50;3.95;;;20.40;86.90;;;;;;5053988;28;20436;-51
2023/07/13 02:27:54;;;;;;;7.40;4.03;;;20.30;87.30;;;;;;5047865;28;20644;-47
2023/07/13 02:30:40;;;;;;;6.97;3.75;;;20.20;87.90;;;;;;5035979;28;20036;-49
2023/07/13 02:33:26;;;;;;;5.93;3.80;;;20.30;87.70;;;;;;5062126;28;20057;-48
2023/07/13 02:36:14;;;;;;;4.88;3.97;;;20.30;87.70;;;;;;5035802;28;20109;-48
2023/07/13 02:39:02;;;;;;;8.63;4.10;;;20.40;88.30;;;;;;5034833;28;20409;-47
2023/07/13 02:41:48;;;;;;;5.60;3.65;;;20.60;87.50;;;;;;5035744;28;20026;-50
2023/07/13 02:44:34;;;;;;;6.93;4.55;;;20.70;87.60;;;;;;5034116;28;20037;-47
2023/07/13 02:47:20;;;;;;;4.35;3.67;;;20.80;87.10;;;;;;5034656;28;20057;-51
2023/07/13 02:50:07;;;;;;;4.72;3.60;;;21.00;86.60;;;;;;5035149;28;20029;-50
2023/07/13 02:52:52;;;;;;;5.05;3.80;;;21.00;86.30;;;;;;5035166;28;20029;-51
2023/07/13 02:55:40;;;;;;;5.50;3.72;;;21.00;87.30;;;;;;5035076;28;20029;-47
2023/07/13 02:58:26;;;;;;;6.47;4.30;;;20.90;86.50;;;;;;5053103;28;20037;-46
2023/07/13 03:01:12;;;;;;;5.55;3.67;;;20.50;87.30;;;;;;5055536;28;20044;-47
2023/07/13 03:03:58;;;;;;;5.53;3.75;;;20.50;88.00;;;;;;5054899;28;20432;-47
2023/07/13 03:06:45;;;;;;;8.40;3.83;;;20.50;87.50;;;;;;5052553;28;20021;-49
2023/07/13 03:09:32;;;;;;;5.13;3.97;;;20.40;88.20;;;;;;5053296;28;20517;-48
2023/07/13 03:12:18;;;;;;;5.90;4.10;;;20.40;87.50;;;;;;5053136;28;20080;-48
2023/07/13 03:15:05;;;;;;;4.70;3.67;;;20.30;88.80;;;;;;5053638;28;20025;-48
2023/07/13 03:17:50;;;;;;;4.75;3.80;;;20.20;88.80;;;;;;5052335;28;20556;-48
2023/07/13 03:20:36;;;;;;;7.90;4.20;;;20.20;89.60;;;;;;5053293;28;20429;-49
2023/07/13 03:23:24;;;;;;;7.10;4.22;;;20.00;90.10;;;;;;5045962;28;20036;-48
2023/07/13 03:26:15;;;;;;;5.05;4.38;;;20.00;90.20;;;;;;5034183;28;20084;-50
2023/07/13 03:29:01;;;;;;;8.10;3.83;;;19.90;90.30;;;;;;5034349;28;20092;-48
2023/07/13 03:31:47;;;;;;;6.10;4.65;;;20.00;90.50;;;;;;5033648;28;20033;-47
2023/07/13 03:34:33;;;;;;;6.10;4.03;;;20.00;90.50;;;;;;5035299;28;20037;-47
2023/07/13 03:37:19;;;;;;;4.30;3.72;;;20.10;90.40;;;;;;5034757;28;20418;-48
2023/07/13 03:40:09;;;;;;;5.90;4.35;;;20.20;90.60;;;;;;5034408;28;20033;-48
2023/07/13 03:42:54;;;;;;;4.30;3.88;;;20.30;90.40;;;;;;5033915;28;20114;-50
2023/07/13 03:45:41;;;;;;;4.35;3.88;;;20.50;90.20;;;;;;5039390;28;20021;-52
2023/07/13 03:48:27;;;;;;;6.90;4.03;;;20.60;90.00;;;;;;5062441;28;20029;-50
2023/07/13 03:51:14;;;;;;;6.47;4.05;;;20.60;89.80;;;;;;5058312;28;20020;-47
2023/07/13 03:54:01;;;;;;;7.20;4.25;;;20.60;89.70;;;;;;5070048;28;20020;-49
2023/07/13 03:56:47;;;;;;;5.15;3.92;;;20.60;90.10;;;;;;5057052;28;20447;-50
2023/07/13 03:59:33;;;;;;;10.02;4.28;;;20.60;90.00;;;;;;5035520;28;20032;-50
2023/07/13 04:02:20;;;;;;;5.97;3.97;;;20.80;90.00;;;;;;5034274;28;20041;-48
2023/07/13 04:05:06;;;;;;;5.30;3.95;;;21.00;89.50;;;;;;5033988;28;20184;-52
2023/07/13 04:07:52;;;;;;;5.18;4.00;;;21.10;88.80;;;;;;5034023;28;20033;-50
2023/07/13 04:10:38;;;;;;;8.00;4.43;;;21.10;88.70;;;;;;5033654;28;20037;-48
2023/07/13 04:13:25;;;;;;;8.23;4.53;;;21.00;89.80;;;;;;5042697;28;20032;-49
2023/07/13 04:16:12;;;;;;;6.03;4.07;;;21.00;89.40;;;;;;5053538;28;20033;-52
2023/07/13 04:18:59;;;;;;;7.05;4.00;;;20.90;89.90;;;;;;5052058;28;20123;-53
2023/07/13 04:21:45;;;;;;;6.93;4.25;;;20.90;90.00;;;;;;5052067;28;20063;-55
2023/07/13 04:24:31;;;;;;;5.55;4.05;;;20.90;89.70;;;;;;5052484;28;20032;-57
2023/07/13 04:27:17;;;;;;;7.38;4.43;;;20.90;90.20;;;;;;5051664;28;20109;-52
2023/07/13 04:30:03;;;;;;;5.10;4.00;;;20.90;90.30;;;;;;5053116;28;20025;-49
2023/07/13 04:32:52;;;;;;;6.93;4.38;;;20.90;90.40;;;;;;5052153;28;20028;-51
2023/07/13 04:35:38;;;;;;;7.03;4.80;;;20.90;90.50;;;;;;5052149;28;20031;-51
2023/07/13 04:38:27;;;;;;;7.05;5.15;;;20.90;90.80;;;;;;5033623;28;20061;-53
2023/07/13 04:41:14;;;;;;;7.32;4.95;;;20.80;91.10;;;;;;5034453;28;20021;-55
2023/07/13 04:44:00;;;;;;;9.90;5.53;;;20.60;92.10;;;;;;5039615;28;20026;-54
2023/07/13 04:46:46;;;;;;;8.90;5.10;;;20.30;92.30;;;;;;5069610;28;20095;-54
2023/07/13 04:49:32;;;;;;;7.03;4.70;;;20.20;92.70;;;;;;5064010;28;20057;-49
2023/07/13 04:52:18;;;;;;;6.53;4.78;;;20.20;92.40;;;;;;5044498;28;20064;-48
2023/07/13 04:55:04;;;;;;;4.97;4.30;;;20.40;92.50;;;;;;5050958;28;20029;-51
2023/07/13 04:57:51;;;;;;;7.57;4.85;;;20.50;92.20;;;;;;5052046;28;20449;-52
2023/07/13 05:00:37;;;;;;;6.32;4.70;;;20.70;91.90;;;;;;5046923;28;20520;-51
2023/07/13 05:03:23;;;;;;;11.38;5.30;;;20.70;91.80;;;;;;5032849;28;20033;-51
2023/07/13 05:06:12;;;;;;;8.40;5.32;;;20.70;91.90;;;;;;5048244;28;20037;-49
2023/07/13 05:08:58;;;;;;;7.35;4.53;;;20.60;92.20;;;;;;5032884;28;20032;-50
2023/07/13 05:11:44;;;;;;;6.75;4.65;;;20.80;91.80;;;;;;5032942;28;20021;-51
2023/07/13 05:14:30;;;;;;;13.07;9.35;;;20.80;92.00;;;;;;5032426;28;20095;-49
2023/07/13 05:17:16;;;;;;;7.93;5.25;;;20.90;91.90;;;;;;5030912;28;20489;-49
2023/07/13 05:20:02;;;;;;;8.48;4.72;;;21.00;92.00;;;;;;5032866;28;20035;-48
2023/07/13 05:22:48;;;;;;;6.65;4.95;;;21.10;91.50;;;;;;5033504;28;20033;-48
2023/07/13 05:25:34;;;;;;;7.05;4.68;;;21.10;91.60;;;;;;5032128;28;20029;-50
2023/07/13 05:28:20;;;;;;;7.80;4.70;;;21.20;91.90;;;;;;5031533;28;20029;-51
2023/07/13 05:31:10;;;;;;;11.13;5.40;;;21.30;91.40;;;;;;5032390;28;20083;-48
2023/07/13 05:33:55;;;;;;;9.07;4.85;;;21.40;91.20;;;;;;5043562;28;20037;-48
2023/07/13 05:36:42;;;;;;;6.20;4.65;;;21.40;91.30;;;;;;5049983;28;20490;-47
2023/07/13 05:39:28;;;;;;;14.43;6.28;;;21.60;91.30;;;;;;5050530;28;20068;-50
2023/07/13 05:42:14;;;;;;;9.27;5.00;;;21.50;91.20;;;;;;5048560;28;20029;-53
2023/07/13 05:45:00;;;;;;;6.55;5.03;;;21.40;91.60;;;;;;5051039;28;20545;-51
2023/07/13 05:47:45;;;;;;;7.03;5.07;;;21.50;91.40;;;;;;5050133;28;20381;-50
2023/07/13 05:50:31;;;;;;;6.60;4.72;;;21.60;91.40;;;;;;5051456;28;20025;-48
2023/07/13 05:53:18;;;;;;;7.13;4.43;;;21.40;91.30;;;;;;5050312;28;20031;-48
2023/07/13 05:56:04;;;;;;;6.40;4.53;;;21.10;91.70;;;;;;5055412;28;20032;-50
2023/07/13 05:58:50;;;;;;;12.13;5.03;;;21.10;91.90;;;;;;5050223;28;20026;-48
2023/07/13 06:01:36;;;;;;;10.82;5.15;;;21.30;91.10;;;;;;5036082;28;20038;-48
2023/07/13 06:04:21;;;;;;;9.63;4.70;;;21.40;91.00;;;;;;5035747;28;20033;-50
2023/07/13 06:07:07;;;;;;;10.75;5.20;;;21.50;91.10;;;;;;5062912;28;20453;-50
2023/07/13 06:09:53;;;;;;;11.32;4.72;;;21.70;90.90;;;;;;5039719;28;20025;-50
2023/07/13 06:12:39;;;;;;;14.38;5.35;;;21.80;90.60;;;;;;5039011;28;20394;-50
2023/07/13 06:15:25;;;;;;;8.50;4.47;;;21.80;90.30;;;;;;5060024;28;20481;-51
2023/07/13 06:18:11;;;;;;;11.90;5.22;;;22.00;90.40;;;;;;5056033;28;20037;-51
2023/07/13 06:20:57;;;;;;;8.55;4.15;;;22.00;90.20;;;;;;5055250;28;20033;-52
2023/07/13 06:23:47;;;;;;;9.82;4.32;;;22.10;88.80;;;;;;5054710;28;20107;-52
2023/07/13 06:26:33;;;;;;;5.47;4.00;;;22.00;87.50;;;;;;5054376;28;20441;-55
2023/07/13 06:29:19;;;;;;;10.48;4.38;;;22.10;87.20;;;;;;5055054;28;20033;-57
2023/07/13 06:32:05;;;;;;;8.07;4.43;;;22.10;86.30;;;;;;5053476;28;20029;-55
2023/07/13 06:34:51;;;;;;;8.75;4.05;;;22.00;86.70;;;;;;5035706;28;20427;-53
2023/07/13 06:37:37;;;;;;;8.52;3.88;;;22.10;85.90;;;;;;5036135;28;20037;-54
2023/07/13 06:40:23;;;;;;;7.30;4.43;;;22.10;85.10;;;;;;5036841;28;20037;-55
2023/07/13 06:43:09;;;;;;;7.88;3.75;;;22.10;85.30;;;;;;5028708;28;20382;-54
2023/07/13 06:45:55;;;;;;;7.93;4.32;;;22.20;85.20;;;;;;5038992;28;20051;-56
2023/07/13 06:48:43;;;;;;;13.93;4.35;;;22.30;84.90;;;;;;5051580;28;20025;-55
2023/07/13 06:51:28;;;;;;;6.82;3.60;;;22.10;83.40;;;;;;5034353;28;20386;-55
2023/07/13 06:54:14;;;;;;;7.55;3.65;;;22.10;81.70;;;;;;5034656;28;20088;-52
2023/07/13 06:57:00;;;;;;;9.70;3.47;;;22.30;81.40;;;;;;5030092;28;20040;-53
2023/07/13 06:59:46;;;;;;;8.45;4.15;;;22.40;81.20;;;;;;5032990;28;20113;-53
2023/07/13 07:02:32;;;;;;;7.22;3.63;;;22.20;81.50;;;;;;5037274;28;20459;-50
2023/07/13 07:05:21;;;;;;;8.48;3.70;;;22.20;80.60;;;;;;5034407;28;20036;-56
2023/07/13 07:08:07;;;;;;;10.63;4.22;;;22.30;80.50;;;;;;5041162;28;20055;-55
2023/07/13 07:10:53;;;;;;;6.55;3.45;;;22.60;80.30;;;;;;5053118;28;20021;-53
2023/07/13 07:13:40;;;;;;;9.77;3.65;;;22.80;79.30;;;;;;5047022;28;20100;-52
2023/07/13 07:16:26;;;;;;;7.32;3.88;;;22.90;78.30;;;;;;5034795;28;20044;-54
2023/07/13 07:19:12;;;;;;;6.07;3.15;;;22.70;78.80;;;;;;5031431;28;20131;-54
2023/07/13 07:21:58;;;;;;;6.13;3.25;;;22.70;78.30;;;;;;5035640;28;20375;-53
2023/07/13 07:24:44;;;;;;;9.18;3.28;;;23.00;77.30;;;;;;5034863;28;20041;-50
2023/07/13 07:27:30;;;;;;;5.82;2.95;;;23.30;77.30;;;;;;5033801;28;20036;-51
2023/07/13 07:30:16;;;;;;;6.00;3.10;;;23.10;77.20;;;;;;5034025;28;20056;-50
2023/07/13 07:33:02;;;;;;;5.68;3.33;;;23.10;76.40;;;;;;5052247;28;20076;-50
2023/07/13 07:35:48;;;;;;;8.60;3.30;;;23.10;76.30;;;;;;5047915;28;20402;-56
2023/07/13 07:38:34;;;;;;;8.02;3.47;;;22.90;76.10;;;;;;5045867;28;20060;-50
2023/07/13 07:41:20;;;;;;;9.10;3.80;;;22.80;76.70;;;;;;5033967;28;20025;-50
2023/07/13 07:44:07;;;;;;;8.93;3.90;;;23.00;76.90;;;;;;5033863;28;20112;-51
2023/07/13 07:46:53;;;;;;;6.78;3.80;;;22.70;76.20;;;;;;5033644;28;20049;-50
2023/07/13 07:49:39;;;;;;;5.50;3.30;;;22.90;76.30;;;;;;5033935;28;20113;-50
2023/07/13 07:52:25;;;;;;;10.93;3.80;;;23.10;75.90;;;;;;5034076;28;20509;-49
2023/07/13 07:55:11;;;;;;;9.77;3.13;;;23.00;76.10;;;;;;5034496;28;20061;-54
2023/07/13 07:57:57;;;;;;;7.30;3.30;;;23.10;76.80;;;;;;5035193;28;20132;-52
2023/07/13 08:00:43;;;;;;;10.02;4.35;;;22.90;77.40;;;;;;5059855;28;20029;-54
2023/07/13 08:03:29;;;;;;;8.13;3.95;;;22.80;77.40;;;;;;5033229;28;20036;-53
2023/07/13 08:06:15;;;;;;;8.85;3.53;;;22.70;77.60;;;;;;5033243;28;20036;-55
2023/07/13 08:09:02;;;;;;;6.85;3.35;;;23.10;77.60;;;;;;5032738;28;20140;-55
2023/07/13 08:11:48;;;;;;;8.02;3.38;;;23.10;77.40;;;;;;5033203;28;20025;-52
2023/07/13 08:14:34;;;;;;;6.43;3.40;;;23.30;77.20;;;;;;5033395;28;20033;-56
2023/07/13 08:17:20;;;;;;;6.32;3.45;;;23.50;76.60;;;;;;5033426;28;20030;-53
2023/07/13 08:20:08;;;;;;;8.98;4.03;;;23.20;77.10;;;;;;5034610;28;20033;-52
2023/07/13 08:22:54;;;;;;;7.78;3.70;;;23.00;77.80;;;;;;5034344;28;20041;-52
2023/07/13 08:25:40;;;;;;;7.47;3.95;;;23.10;78.50;;;;;;5032764;28;20037;-52
2023/07/13 08:28:26;;;;;;;10.73;3.83;;;23.40;77.20;;;;;;5032123;28;20037;-53
2023/07/13 08:31:12;;;;;;;7.18;3.60;;;23.60;77.30;;;;;;5033817;28;20116;-53
2023/07/13 08:33:58;;;;;;;7.45;3.47;;;23.60;77.60;;;;;;5032960;28;20032;-53
2023/07/13 08:36:44;;;;;;;7.25;3.83;;;23.80;76.80;;;;;;5033300;28;20116;-53
2023/07/13 08:39:31;;;;;;;9.40;3.88;;;23.80;76.80;;;;;;5032492;28;20498;-55
2023/07/13 08:42:28;;;;;;;7.25;3.78;;;24.00;76.10;;;;;;5032179;28;20513;-54
2023/07/13 08:45:39;;;;;;;7.10;3.83;;;24.10;75.90;;;;;;5031520;28;20048;-51
2023/07/13 08:49:14;;;;;;;7.55;3.60;;;23.60;76.50;;;;;;5033023;28;20060;-53
2023/07/13 08:52:12;;;;;;;7.72;3.53;;;23.40;76.90;;;;;;5032851;28;20040;-55
2023/07/13 08:55:16;;;;;;;8.00;4.05;;;23.70;76.60;;;;;;5031688;28;20038;-52
2023/07/13 08:58:19;;;;;;;8.25;5.05;;;24.20;75.70;;;;;;5032561;28;20065;-51
2023/07/13 09:01:19;;;;;;;9.23;3.88;;;24.00;74.30;;;;;;5033502;28;20037;-47
2023/07/13 09:04:15;;;;;;;9.07;3.80;;;23.90;74.20;;;;;;5031381;28;20041;-46
2023/07/13 09:07:08;;;;;;;5.50;3.28;;;23.10;75.60;;;;;;5031363;28;20029;-48
2023/07/13 09:10:27;;;;;;;6.18;3.78;;;23.00;75.80;;;;;;5033372;28;20026;-50
2023/07/13 09:13:40;;;;;;;7.82;3.38;;;23.00;76.60;;;;;;5032941;28;20025;-46
2023/07/13 09:16:26;;;;;;;8.32;3.97;;;23.00;77.40;;;;;;5036154;28;20030;-51
2023/07/13 09:19:25;;;;;;;10.50;3.75;;;22.90;77.90;;;;;;5032941;28;20461;-51
2023/07/13 09:22:17;;;;;;;7.43;3.30;;;23.00;77.70;;;;;;5032378;28;20025;-47
2023/07/13 09:25:27;;;;;;;8.48;3.70;;;23.10;77.50;;;;;;5031703;28;20120;-47
2023/07/13 09:28:20;;;;;;;9.27;3.80;;;23.40;77.70;;;;;;5032556;28;20079;-49
2023/07/13 09:31:28;;;;;;;7.22;3.72;;;23.80;77.10;;;;;;5031409;28;20017;-48
2023/07/13 09:34:14;;;;;;;5.05;3.40;;;24.10;75.30;;;;;;5033072;28;20406;-47
2023/07/13 09:37:00;;;;;;;4.40;3.15;;;24.20;74.50;;;;;;5031403;28;20036;-50
2023/07/13 09:39:46;;;;;;;7.20;3.35;;;24.30;74.00;;;;;;5033303;28;20026;-48
2023/07/13 09:42:33;;;;;;;7.63;3.60;;;24.10;71.90;;;;;;5033387;28;20025;-46
2023/07/13 09:45:30;;;;;;;5.82;3.10;;;23.70;71.80;;;;;;5031375;28;20116;-51
2023/07/13 09:48:18;;;;;;;6.95;3.20;;;23.60;71.70;;;;;;5031464;28;20029;-49
2023/07/13 09:51:14;;;;;;;7.05;3.40;;;23.60;72.50;;;;;;5032998;28;20107;-46
2023/07/13 09:54:02;;;;;;;8.48;3.58;;;23.50;72.70;;;;;;5031292;28;20032;-45
2023/07/13 09:56:53;;;;;;;7.18;3.40;;;23.50;73.80;;;;;;5030992;28;20026;-50
2023/07/13 09:59:51;;;;;;;7.28;3.10;;;23.70;72.80;;;;;;5029044;28;20018;-49
2023/07/13 10:02:37;;;;;;;6.65;3.08;;;23.80;71.00;;;;;;5029799;28;20053;-51
2023/07/13 10:05:24;;;;;;;6.57;2.80;;;24.10;71.10;;;;;;5029912;28;20026;-51
2023/07/13 10:08:37;;;;;;;6.35;3.15;;;24.30;71.40;;;;;;5030562;28;20021;-50
2023/07/13 10:11:29;;;;;;;6.82;3.30;;;24.20;71.60;;;;;;5031549;28;20025;-50
2023/07/13 10:14:20;;;;;;;8.73;3.10;;;24.50;70.70;;;;;;5031640;28;20029;-51
2023/07/13 10:17:14;;;;;;;7.25;3.03;;;24.30;71.30;;;;;;5033353;28;20060;-52
2023/07/13 10:20:04;;;;;;;10.80;3.38;;;24.10;71.30;;;;;;5032090;28;20029;-54
2023/07/13 10:23:07;;;;;;;6.38;3.63;;;23.90;71.70;;;;;;5042395;28;20553;-52
2023/07/13 10:25:56;;;;;;;6.97;3.22;;;23.80;71.60;;;;;;5043181;28;20037;-50
2023/07/13 10:28:47;;;;;;;6.53;3.00;;;24.00;72.20;;;;;;5039566;28;20034;-48
2023/07/13 10:31:36;;;;;;;9.32;3.65;;;24.10;71.70;;;;;;5034588;28;20018;-46
2023/07/13 10:34:23;;;;;;;4.93;3.53;;;23.80;72.50;;;;;;5033729;28;20061;-50
2023/07/13 10:37:20;;;;;;;4.93;3.10;;;23.80;72.70;;;;;;5034711;28;20103;-51
2023/07/13 10:40:14;;;;;;;6.90;3.17;;;23.90;71.90;;;;;;5050578;28;20120;-48
2023/07/13 10:43:04;;;;;;;4.97;3.15;;;24.10;71.20;;;;;;5029901;28;20025;-48
2023/07/13 10:45:51;;;;;;;4.50;3.45;;;24.30;71.30;;;;;;5022787;28;20026;-48
2023/07/13 10:48:39;;;;;;;6.30;3.47;;;24.50;70.50;;;;;;5035050;28;20030;-54
2023/07/13 10:51:27;;;;;;;6.70;3.17;;;24.90;71.10;;;;;;5035735;28;20029;-48
2023/07/13 10:54:22;;;;;;;5.63;2.92;;;24.90;71.00;;;;;;5024539;28;20422;-53
2023/07/13 10:57:15;;;;;;;5.60;3.25;;;24.50;70.10;;;;;;5035571;28;20029;-53
2023/07/13 11:00:14;;;;;;;4.72;2.92;;;24.20;70.80;;;;;;5014559;28;20036;-55
2023/07/13 11:03:02;;;;;;;5.07;3.08;;;24.10;72.10;;;;;;5014789;28;20033;-53
2023/07/13 11:05:51;;;;;;;3.95;2.80;;;24.30;70.60;;;;;;5014696;28;20433;-53
2023/07/13 11:08:51;;;;;;;3.70;2.78;;;24.20;68.60;;;;;;5014614;28;20560;-50
2023/07/13 11:11:38;;;;;;;4.30;2.88;;;24.40;68.70;;;;;;5035528;28;20033;-53
2023/07/13 11:14:28;;;;;;;5.13;2.92;;;24.60;67.80;;;;;;5035768;28;20084;-57
2023/07/13 11:17:32;;;;;;;4.97;2.80;;;24.80;67.50;;;;;;5033576;28;20032;-53
2023/07/13 11:20:31;;;;;;;6.40;2.60;;;25.00;67.30;;;;;;5034176;28;20026;-49
2023/07/13 11:23:26;;;;;;;3.35;2.50;;;25.20;65.20;;;;;;5033639;28;20056;-49
2023/07/13 11:26:41;;;;;;;5.40;2.75;;;25.00;65.80;;;;;;5033362;28;20171;-47
2023/07/13 11:29:33;;;;;;;;;;;25.30;65.60;;;;;;5034098;28;20056;-48
2023/07/13 11:32:26;;;;;;;4.53;2.40;;;25.30;65.20;;;;;;5033997;28;20326;-48
2023/07/13 11:35:19;;;;;;;11.48;2.70;;;25.50;65.00;;;;;;5038511;28;20490;-50
2023/07/13 11:38:15;;;;;;;2.92;2.22;;;25.40;64.30;;;;;;5035853;28;20398;-50
2023/07/13 11:41:05;;;;;;;2.97;2.30;;;25.30;65.20;;;;;;5020304;28;20030;-53
2023/07/13 11:43:55;;;;;;;4.47;2.40;;;25.70;65.40;;;;;;5035578;28;20034;-48
2023/07/13 11:46:51;;;;;;;3.13;2.25;;;25.50;64.30;;;;;;5034903;28;20037;-47
2023/07/13 11:49:50;;;;;;;4.22;2.38;;;25.60;65.40;;;;;;5033271;28;20502;-51
2023/07/13 11:52:37;;;;;;;12.07;3.45;;;25.60;64.30;;;;;;5033973;28;20440;-47
2023/07/13 11:55:24;;;;;;;3.75;2.60;;;25.40;64.90;;;;;;5032415;28;20025;-50
2023/07/13 11:58:11;;;;;;;5.93;2.72;;;25.60;64.70;;;;;;5041676;28;20485;-49
2023/07/13 12:01:01;;;;;;;3.30;2.40;;;25.80;64.80;;;;;;5054586;28;20037;-48
2023/07/13 12:03:48;;;;;;;3.08;2.25;;;25.80;63.50;;;;;;5049131;28;20063;-52
2023/07/13 12:06:39;;;;;;;4.25;2.45;;;25.80;63.30;;;;;;5033782;28;20520;-48
2023/07/13 12:09:27;;;;;;;3.85;2.33;;;25.70;63.60;;;;;;5033931;28;20398;-49
2023/07/13 12:12:20;;;;;;;3.20;2.00;;;25.60;63.40;;;;;;5034598;28;20082;-51
2023/07/13 12:15:08;;;;;;;5.43;2.40;;;25.50;63.80;;;;;;5059444;28;20048;-51
2023/07/13 12:17:56;;;;;;;6.70;2.65;;;25.40;64.70;;;;;;5050911;28;20080;-49
2023/07/13 12:20:43;;;;;;;5.57;2.65;;;25.60;64.30;;;;;;5048125;28;20030;-51
2023/07/13 12:23:32;;;;;;;4.47;2.30;;;25.20;64.70;;;;;;5035102;28;20029;-50
2023/07/13 12:26:19;;;;;;;5.32;2.70;;;25.20;65.00;;;;;;5032788;28;20056;-55
2023/07/13 12:29:06;;;;;;;5.00;2.38;;;25.10;64.80;;;;;;5034238;28;20044;-53
2023/07/13 12:31:52;;;;;;;4.60;2.55;;;24.80;65.40;;;;;;5019497;28;20040;-50
2023/07/13 12:34:52;;;;;;;5.72;2.50;;;25.00;65.50;;;;;;5033632;28;20021;-53
2023/07/13 12:37:42;;;;;;;5.07;2.50;;;24.90;65.00;;;;;;5033146;28;20108;-54
2023/07/13 12:40:37;;;;;;;3.60;2.67;;;25.00;65.00;;;;;;5048843;28;20036;-51
2023/07/13 12:43:25;;;;;;;3.38;2.47;;;25.00;65.20;;;;;;5044552;28;20465;-52
2023/07/13 12:46:28;;;;;;;3.67;2.40;;;25.20;65.30;;;;;;5047019;28;20112;-56
2023/07/13 12:49:14;;;;;;;4.88;2.50;;;25.70;65.40;;;;;;5036557;28;20021;-53
2023/07/13 12:52:03;;;;;;;4.43;2.72;;;25.80;64.60;;;;;;5032729;28;20033;-57
2023/07/13 12:54:57;;;;;;;6.88;2.65;;;25.80;65.10;;;;;;5042358;28;20029;-56
2023/07/13 12:57:55;;;;;;;4.43;2.50;;;25.80;64.30;;;;;;5039234;28;20041;-59
2023/07/13 13:00:48;;;;;;;7.53;2.47;;;25.50;64.00;;;;;;5033634;28;20343;-53
2023/07/13 13:03:38;;;;;;;5.03;2.47;;;25.60;63.20;;;;;;5031739;28;20036;-57
2023/07/13 13:06:27;;;;;;;5.10;3.22;;;25.80;63.00;;;;;;5032260;28;20097;-54
2023/07/13 13:09:15;;;;;;;5.45;3.10;;;25.80;62.00;;;;;;5050068;28;20417;-55
2023/07/13 13:12:06;;;;;;;5.50;2.70;;;25.90;63.10;;;;;;5053577;28;20483;-54
2023/07/13 13:14:53;;;;;;;4.55;2.63;;;26.10;63.20;;;;;;5007567;28;20037;-55
2023/07/13 13:17:39;;;;;;;3.90;2.80;;;25.90;62.90;;;;;;5015516;28;20045;-54
2023/07/13 13:20:28;;;;;;;4.10;2.58;;;25.80;63.70;;;;;;5045498;28;20091;-57
2023/07/13 13:23:18;;;;;;;3.40;2.35;;;25.80;63.20;;;;;;5035146;28;20111;-53
2023/07/13 13:26:10;;;;;;;4.65;2.45;;;26.10;62.70;;;;;;5029170;28;20088;-53
2023/07/13 13:28:56;;;;;;;7.70;2.97;;;26.60;62.30;;;;;;5035897;28;20036;-53
2023/07/13 13:31:43;;;;;;;5.20;2.80;;;26.40;61.40;;;;;;5033174;28;20394;-53
2023/07/13 13:34:29;;;;;;;5.35;2.85;;;26.70;61.30;;;;;;5032457;28;20144;-52
2023/07/13 13:37:22;;;;;;;5.40;2.47;;;26.40;60.00;;;;;;5058834;28;20160;-58
2023/07/13 13:40:30;;;;;;;3.15;2.30;;;26.60;59.40;;;;;;5027398;28;20029;-54
2023/07/13 13:43:17;;;;;;;3.72;2.95;;;26.60;59.70;;;;;;5030888;28;20029;-54
2023/07/13 13:46:14;;;;;;;2.60;2.40;;;26.80;59.30;;;;;;5029292;28;20032;-55
2023/07/13 13:49:01;;;;;;;7.72;3.03;;;26.50;59.10;;;;;;5037633;27;20037;-55
2023/07/13 13:51:47;;;;;;;5.45;2.60;;;26.30;60.60;;;;;;5034227;28;20037;-54
2023/07/13 13:54:33;;;;;;;4.32;2.65;;;26.10;61.10;;;;;;5032224;28;20029;-55
2023/07/13 13:57:19;;;;;;;4.70;2.65;;;26.20;60.70;;;;;;5030705;28;20509;-53
2023/07/13 14:00:06;;;;;;;5.80;2.50;;;26.10;60.90;;;;;;5032889;28;20038;-53
2023/07/13 14:02:54;;;;;;;5.78;2.67;;;26.10;61.10;;;;;;5030222;28;20041;-51
2023/07/13 14:05:40;;;;;;;5.03;2.63;;;26.00;61.20;;;;;;5039264;28;20401;-52
2023/07/13 14:08:26;;;;;;;4.03;2.70;;;25.80;61.90;;;;;;5036982;28;20516;-52
2023/07/13 14:11:18;;;;;;;4.50;2.83;;;25.70;62.60;;;;;;5050882;28;20029;-52
2023/07/13 14:14:04;;;;;;;4.07;2.65;;;25.70;62.60;;;;;;5051349;28;20029;-53
2023/07/13 14:16:55;;;;;;;5.80;2.70;;;25.80;62.90;;;;;;5022420;28;20095;-53
2023/07/13 14:19:41;;;;;;;3.88;2.70;;;25.70;62.50;;;;;;5054939;28;20079;-53
2023/07/13 14:22:27;;;;;;;3.03;2.40;;;26.00;63.00;;;;;;5055211;28;20068;-55
2023/07/13 14:25:15;;;;;;;6.35;2.83;;;26.20;63.40;;;;;;5055508;28;20029;-55
2023/07/13 14:28:31;;;;;;;7.18;2.40;;;26.70;62.50;;;;;;5058609;28;20029;-52
2023/07/13 14:31:17;;;;;;;3.58;2.80;;;27.20;61.90;;;;;;5051751;28;20091;-55
2023/07/13 14:34:03;;;;;;;7.20;2.92;;;27.10;61.50;;;;;;5046057;28;20029;-53
2023/07/13 14:36:51;;;;;;;6.47;2.70;;;26.70;61.90;;;;;;5054105;28;20035;-54